Air Resources Laboratory banner image
Air Resources Laboratory web site National Oceanic and Atmospheric Administration (NOAA)

ms metar


KBIX 121256Z AUTO 33010KT 10SM CLR 09/05 A3009 RMK AO2 SLP193 T00870049=
KCBM 121256Z AUTO 32008KT 10SM CLR 06/00 A3008 RMK AO2 SLP190 T00621001 TSNO $=
KGLH 121253Z 33010KT 10SM CLR 07/M01 A3017 RMK AO2 SLP224 T00721011=
KGPT 121253Z 32008KT 10SM CLR 08/05 A3010 RMK AO2 SLP191 T00780050=
KGTR 121256Z 30005KT 10SM CLR 06/M02 A3010 RMK AO2 SLP194 T00611017=
KGWO 121253Z AUTO 34006KT 10SM CLR 07/01 A3015 RMK AO2 SLP209 T00720006=
KHBG 121253Z AUTO 32007KT 10SM CLR 09/02 A3012 RMK AO2 SLP199 T00890022=
KHEZ 121256Z AUTO 35004KT 10SM CLR 08/M01 A3020 RMK AO2 SLP230 T00781011=
KHKS 121253Z 33004KT 10SM CLR 08/M01 A3016 RMK AO2 SLP209 T00781006=
KJAN 121254Z 33006KT 10SM CLR 08/M01 A3014 RMK AO2 SLP206 T00831006=
KLUL 121255Z AUTO 33007KT 10SM CLR 05/01 A3011 RMK AO2 T00530005=
KMCB 121253Z AUTO 34006KT 10SM CLR 06/02 A3015 RMK AO2 SLP208 T00610017=
KMEI 121258Z 00000KT 10SM CLR 01/M01 A3011 RMK AO2 SLP195 T00061006=
KNMM 121256Z 32006KT 10SM CLR 07/00 A3010 RMK AO2 SLP202 T00670000=
KOLV 121250Z 31008KT 10SM OVC047 06/M00 A3013=
KPIB 121256Z AUTO 31004KT 10SM CLR 08/01 A3013 RMK AO2 SLP202 T00830006=
KPQL 121253Z VRB03KT 10SM CLR 08/05 A3009 RMK AO2 SLP190 T00780050 $=
KTUP 121253Z 30007KT 10SM CLR 07/M01 A3009 RMK AO2 SLP189 T00721011=
KUOX 121255Z AUTO 32007KT 10SM CLR 05/M01 A3014 RMK AO2=
KVKS 121255Z AUTO 00000KT 10SM CLR 02/00 A3020 RMK A01=